Aviation Services » Terminal Aerodrome Forecasts Saturday, March 25, 2017
 Terminal Aerodrome Forecasts (TAF)

TAF NVSC 241000Z 2412/2512 VRB02KT 9999 FEW020 SCT110=

TAF NVSG 241000Z 2412/2512 VRB02KT 9999 FEW020=

TAF NVSS 241000Z 2412/2512 VRB02KT 9999 FEW025=

TAF NVSL 241000Z 2412/2512 VRB02KT 9999 FEW025=

TAF NVVV 241000Z 2412/2512 VRB02KT 9999 FEW025=

TAF NVVW 241000Z 2412/2512 03005KT 9999 FEW020=

TAF NVVA 241000Z 2412/2512 VRB02KT 9999 SCT025=